sensor_id;sensor_type;location;lat;lon;timestamp;P1;durP1;ratioP1;P2;durP2;ratioP2
47764;SDS011;33529;49.242;8.670;2024-03-23T00:54:01;8.27;;;6.50;;
47764;SDS011;33529;49.242;8.670;2024-03-23T00:56:26;8.38;;;6.88;;
47764;SDS011;33529;49.242;8.670;2024-03-23T00:58:52;8.77;;;5.90;;
47764;SDS011;33529;49.242;8.670;2024-03-23T01:01:18;8.70;;;6.00;;
47764;SDS011;33529;49.242;8.670;2024-03-23T01:03:44;9.70;;;6.57;;
47764;SDS011;33529;49.242;8.670;2024-03-23T01:06:10;10.07;;;6.45;;
47764;SDS011;33529;49.242;8.670;2024-03-23T01:08:36;8.85;;;6.25;;
47764;SDS011;33529;49.242;8.670;2024-03-23T01:11:02;7.63;;;6.35;;
47764;SDS011;33529;49.242;8.670;2024-03-23T01:13:28;9.82;;;6.43;;
47764;SDS011;33529;49.242;8.670;2024-03-23T01:15:54;8.98;;;6.57;;
47764;SDS011;33529;49.242;8.670;2024-03-23T01:18:22;7.63;;;5.70;;
47764;SDS011;33529;49.242;8.670;2024-03-23T01:20:48;9.23;;;6.78;;
47764;SDS011;33529;49.242;8.670;2024-03-23T01:23:15;7.05;;;5.82;;
47764;SDS011;33529;49.242;8.670;2024-03-23T01:25:40;9.63;;;6.78;;
47764;SDS011;33529;49.242;8.670;2024-03-23T01:28:06;7.05;;;6.07;;
47764;SDS011;33529;49.242;8.670;2024-03-23T01:30:33;9.95;;;6.65;;
47764;SDS011;33529;49.242;8.670;2024-03-23T01:33:00;7.18;;;6.35;;
47764;SDS011;33529;49.242;8.670;2024-03-23T01:35:26;8.30;;;6.65;;
47764;SDS011;33529;49.242;8.670;2024-03-23T01:37:52;7.50;;;5.78;;
47764;SDS011;33529;49.242;8.670;2024-03-23T01:40:18;8.25;;;6.68;;
47764;SDS011;33529;49.242;8.670;2024-03-23T01:43:06;10.13;;;5.78;;
47764;SDS011;33529;49.242;8.670;2024-03-23T01:45:33;8.35;;;7.10;;
47764;SDS011;33529;49.242;8.670;2024-03-23T01:47:59;8.40;;;6.43;;
47764;SDS011;33529;49.242;8.670;2024-03-23T01:50:26;7.53;;;6.70;;
47764;SDS011;33529;49.242;8.670;2024-03-23T01:52:53;8.73;;;7.10;;
47764;SDS011;33529;49.242;8.670;2024-03-23T01:55:19;7.43;;;6.22;;
47764;SDS011;33529;49.242;8.670;2024-03-23T01:57:46;8.48;;;6.40;;
47764;SDS011;33529;49.242;8.670;2024-03-23T02:00:11;7.90;;;5.63;;
47764;SDS011;33529;49.242;8.670;2024-03-23T02:02:46;7.43;;;5.78;;
47764;SDS011;33529;49.242;8.670;2024-03-23T02:05:12;8.10;;;6.13;;
47764;SDS011;33529;49.242;8.670;2024-03-23T02:07:39;7.05;;;5.38;;
47764;SDS011;33529;49.242;8.670;2024-03-23T02:10:09;8.27;;;5.65;;
47764;SDS011;33529;49.242;8.670;2024-03-23T02:12:36;8.68;;;6.75;;
47764;SDS011;33529;49.242;8.670;2024-03-23T02:15:02;6.50;;;5.60;;
47764;SDS011;33529;49.242;8.670;2024-03-23T02:17:30;8.93;;;6.20;;
47764;SDS011;33529;49.242;8.670;2024-03-23T02:19:57;7.80;;;5.97;;
47764;SDS011;33529;49.242;8.670;2024-03-23T02:22:23;6.00;;;5.38;;
47764;SDS011;33529;49.242;8.670;2024-03-23T02:24:48;8.45;;;6.32;;
47764;SDS011;33529;49.242;8.670;2024-03-23T02:27:14;7.43;;;5.88;;
47764;SDS011;33529;49.242;8.670;2024-03-23T02:29:40;8.98;;;5.50;;
47764;SDS011;33529;49.242;8.670;2024-03-23T02:32:06;7.78;;;5.47;;
47764;SDS011;33529;49.242;8.670;2024-03-23T02:34:34;9.30;;;5.82;;
47764;SDS011;33529;49.242;8.670;2024-03-23T02:37:00;6.80;;;6.03;;
47764;SDS011;33529;49.242;8.670;2024-03-23T02:39:26;7.22;;;5.70;;
47764;SDS011;33529;49.242;8.670;2024-03-23T02:41:52;7.68;;;6.25;;
47764;SDS011;33529;49.242;8.670;2024-03-23T02:44:18;8.00;;;5.80;;
47764;SDS011;33529;49.242;8.670;2024-03-23T02:46:44;7.45;;;5.68;;
47764;SDS011;33529;49.242;8.670;2024-03-23T02:49:10;6.55;;;5.47;;
47764;SDS011;33529;49.242;8.670;2024-03-23T02:51:36;7.45;;;6.05;;
47764;SDS011;33529;49.242;8.670;2024-03-23T02:54:02;8.05;;;6.47;;
47764;SDS011;33529;49.242;8.670;2024-03-23T02:56:28;7.45;;;6.05;;
47764;SDS011;33529;49.242;8.670;2024-03-23T02:58:53;9.35;;;5.43;;
47764;SDS011;33529;49.242;8.670;2024-03-23T03:01:19;7.90;;;6.15;;
47764;SDS011;33529;49.242;8.670;2024-03-23T03:03:45;7.78;;;6.28;;
47764;SDS011;33529;49.242;8.670;2024-03-23T03:06:11;8.18;;;5.90;;
47764;SDS011;33529;49.242;8.670;2024-03-23T03:08:37;8.25;;;6.28;;
47764;SDS011;33529;49.242;8.670;2024-03-23T03:11:03;8.98;;;5.97;;
47764;SDS011;33529;49.242;8.670;2024-03-23T03:13:28;7.18;;;5.53;;
47764;SDS011;33529;49.242;8.670;2024-03-23T03:15:54;7.50;;;5.90;;
47764;SDS011;33529;49.242;8.670;2024-03-23T03:18:20;8.48;;;5.90;;
47764;SDS011;33529;49.242;8.670;2024-03-23T03:20:46;7.95;;;6.00;;
47764;SDS011;33529;49.242;8.670;2024-03-23T03:23:12;8.07;;;6.40;;
47764;SDS011;33529;49.242;8.670;2024-03-23T03:25:38;7.00;;;5.95;;
47764;SDS011;33529;49.242;8.670;2024-03-23T03:28:04;9.82;;;6.50;;
47764;SDS011;33529;49.242;8.670;2024-03-23T03:30:30;8.23;;;6.50;;
47764;SDS011;33529;49.242;8.670;2024-03-23T03:32:56;7.88;;;5.90;;
47764;SDS011;33529;49.242;8.670;2024-03-23T03:35:22;7.43;;;6.18;;
47764;SDS011;33529;49.242;8.670;2024-03-23T03:37:48;7.45;;;6.55;;
47764;SDS011;33529;49.242;8.670;2024-03-23T03:40:14;10.73;;;6.10;;
47764;SDS011;33529;49.242;8.670;2024-03-23T03:42:40;8.60;;;6.43;;
47764;SDS011;33529;49.242;8.670;2024-03-23T03:45:07;8.52;;;6.47;;
47764;SDS011;33529;49.242;8.670;2024-03-23T03:47:33;8.95;;;6.88;;
47764;SDS011;33529;49.242;8.670;2024-03-23T03:49:58;9.60;;;7.22;;
47764;SDS011;33529;49.242;8.670;2024-03-23T03:52:24;8.13;;;6.90;;
47764;SDS011;33529;49.242;8.670;2024-03-23T03:54:50;11.18;;;7.72;;
47764;SDS011;33529;49.242;8.670;2024-03-23T03:57:16;10.23;;;7.43;;
47764;SDS011;33529;49.242;8.670;2024-03-23T03:59:42;9.98;;;7.95;;
47764;SDS011;33529;49.242;8.670;2024-03-23T04:02:08;10.27;;;8.45;;
47764;SDS011;33529;49.242;8.670;2024-03-23T04:04:34;9.55;;;7.60;;
47764;SDS011;33529;49.242;8.670;2024-03-23T04:07:00;14.27;;;8.90;;
47764;SDS011;33529;49.242;8.670;2024-03-23T04:09:26;12.95;;;8.57;;
47764;SDS011;33529;49.242;8.670;2024-03-23T04:11:52;11.60;;;9.02;;
47764;SDS011;33529;49.242;8.670;2024-03-23T04:14:18;10.95;;;9.48;;
47764;SDS011;33529;49.242;8.670;2024-03-23T04:16:44;10.80;;;9.40;;
47764;SDS011;33529;49.242;8.670;2024-03-23T04:19:10;12.10;;;8.85;;
47764;SDS011;33529;49.242;8.670;2024-03-23T04:21:37;14.13;;;9.93;;
47764;SDS011;33529;49.242;8.670;2024-03-23T04:24:03;13.48;;;10.00;;
47764;SDS011;33529;49.242;8.670;2024-03-23T04:26:29;10.70;;;9.48;;
47764;SDS011;33529;49.242;8.670;2024-03-23T04:28:55;14.40;;;10.18;;
47764;SDS011;33529;49.242;8.670;2024-03-23T04:31:21;12.70;;;9.82;;
47764;SDS011;33529;49.242;8.670;2024-03-23T04:33:47;13.38;;;10.45;;
47764;SDS011;33529;49.242;8.670;2024-03-23T04:36:13;12.50;;;11.10;;
47764;SDS011;33529;49.242;8.670;2024-03-23T04:38:38;12.82;;;9.93;;
47764;SDS011;33529;49.242;8.670;2024-03-23T04:41:04;12.05;;;10.30;;
47764;SDS011;33529;49.242;8.670;2024-03-23T04:43:30;12.38;;;10.10;;
47764;SDS011;33529;49.242;8.670;2024-03-23T04:45:56;11.95;;;9.85;;
47764;SDS011;33529;49.242;8.670;2024-03-23T04:48:22;13.85;;;10.18;;
47764;SDS011;33529;49.242;8.670;2024-03-23T04:50:49;15.15;;;10.70;;
47764;SDS011;33529;49.242;8.670;2024-03-23T04:53:15;13.90;;;10.13;;
47764;SDS011;33529;49.242;8.670;2024-03-23T04:55:42;12.48;;;9.73;;
47764;SDS011;33529;49.242;8.670;2024-03-23T04:58:09;9.50;;;7.68;;
47764;SDS011;33529;49.242;8.670;2024-03-23T05:00:34;12.35;;;8.48;;
47764;SDS011;33529;49.242;8.670;2024-03-23T05:03:00;8.82;;;6.88;;
47764;SDS011;33529;49.242;8.670;2024-03-23T05:05:26;9.85;;;7.25;;
47764;SDS011;33529;49.242;8.670;2024-03-23T05:07:52;10.57;;;7.38;;
47764;SDS011;33529;49.242;8.670;2024-03-23T05:10:18;8.40;;;6.60;;
47764;SDS011;33529;49.242;8.670;2024-03-23T05:12:44;9.32;;;6.60;;
47764;SDS011;33529;49.242;8.670;2024-03-23T05:15:11;8.55;;;5.53;;
47764;SDS011;33529;49.242;8.670;2024-03-23T05:17:37;10.57;;;6.70;;
47764;SDS011;33529;49.242;8.670;2024-03-23T05:20:04;8.48;;;5.30;;
47764;SDS011;33529;49.242;8.670;2024-03-23T05:22:38;8.15;;;5.15;;
47764;SDS011;33529;49.242;8.670;2024-03-23T05:25:05;7.20;;;4.97;;
47764;SDS011;33529;49.242;8.670;2024-03-23T05:27:31;7.10;;;4.93;;
47764;SDS011;33529;49.242;8.670;2024-03-23T05:29:58;6.25;;;3.97;;
47764;SDS011;33529;49.242;8.670;2024-03-23T05:32:24;5.43;;;3.63;;
47764;SDS011;33529;49.242;8.670;2024-03-23T05:34:50;5.47;;;4.20;;
47764;SDS011;33529;49.242;8.670;2024-03-23T05:37:21;5.03;;;3.40;;
47764;SDS011;33529;49.242;8.670;2024-03-23T05:39:48;4.95;;;3.60;;
47764;SDS011;33529;49.242;8.670;2024-03-23T05:42:15;5.07;;;3.75;;
47764;SDS011;33529;49.242;8.670;2024-03-23T05:44:45;4.63;;;3.35;;
47764;SDS011;33529;49.242;8.670;2024-03-23T05:47:12;5.28;;;3.03;;
47764;SDS011;33529;49.242;8.670;2024-03-23T05:49:40;5.68;;;3.30;;
47764;SDS011;33529;49.242;8.670;2024-03-23T05:52:09;5.25;;;3.60;;
47764;SDS011;33529;49.242;8.670;2024-03-23T05:54:35;4.47;;;3.08;;
47764;SDS011;33529;49.242;8.670;2024-03-23T05:57:01;5.05;;;3.00;;
47764;SDS011;33529;49.242;8.670;2024-03-23T05:59:27;6.43;;;3.15;;
47764;SDS011;33529;49.242;8.670;2024-03-23T06:01:53;3.83;;;2.33;;
47764;SDS011;33529;49.242;8.670;2024-03-23T06:04:19;3.92;;;2.40;;
47764;SDS011;33529;49.242;8.670;2024-03-23T06:06:46;3.72;;;2.28;;
47764;SDS011;33529;49.242;8.670;2024-03-23T06:09:12;5.32;;;2.92;;
47764;SDS011;33529;49.242;8.670;2024-03-23T06:11:38;2.95;;;1.67;;
47764;SDS011;33529;49.242;8.670;2024-03-23T06:14:04;6.00;;;1.95;;
47764;SDS011;33529;49.242;8.670;2024-03-23T06:16:31;3.00;;;1.95;;
47764;SDS011;33529;49.242;8.670;2024-03-23T06:18:57;5.95;;;2.03;;
47764;SDS011;33529;49.242;8.670;2024-03-23T06:21:24;3.78;;;1.63;;
47764;SDS011;33529;49.242;8.670;2024-03-23T06:23:52;3.55;;;1.73;;
47764;SDS011;33529;49.242;8.670;2024-03-23T06:26:19;3.20;;;1.80;;
47764;SDS011;33529;49.242;8.670;2024-03-23T06:28:47;2.90;;;1.70;;
47764;SDS011;33529;49.242;8.670;2024-03-23T06:31:13;4.07;;;1.33;;
47764;SDS011;33529;49.242;8.670;2024-03-23T06:33:39;2.47;;;1.15;;
47764;SDS011;33529;49.242;8.670;2024-03-23T06:36:11;2.03;;;1.10;;
47764;SDS011;33529;49.242;8.670;2024-03-23T06:38:37;2.10;;;1.23;;
47764;SDS011;33529;49.242;8.670;2024-03-23T06:41:04;2.50;;;1.17;;
47764;SDS011;33529;49.242;8.670;2024-03-23T06:43:30;1.70;;;0.80;;
47764;SDS011;33529;49.242;8.670;2024-03-23T06:45:56;2.28;;;0.80;;
47764;SDS011;33529;49.242;8.670;2024-03-23T06:48:22;1.85;;;0.90;;
47764;SDS011;33529;49.242;8.670;2024-03-23T06:50:48;1.60;;;0.80;;
47764;SDS011;33529;49.242;8.670;2024-03-23T06:53:14;1.67;;;0.80;;
47764;SDS011;33529;49.242;8.670;2024-03-23T06:55:40;2.55;;;0.88;;
47764;SDS011;33529;49.242;8.670;2024-03-23T06:58:07;1.67;;;0.70;;
47764;SDS011;33529;49.242;8.670;2024-03-23T07:00:33;0.85;;;0.47;;
47764;SDS011;33529;49.242;8.670;2024-03-23T07:02:59;1.90;;;0.70;;
47764;SDS011;33529;49.242;8.670;2024-03-23T07:05:25;1.48;;;0.60;;
47764;SDS011;33529;49.242;8.670;2024-03-23T07:07:51;1.15;;;0.50;;
47764;SDS011;33529;49.242;8.670;2024-03-23T07:10:17;0.93;;;0.50;;
47764;SDS011;33529;49.242;8.670;2024-03-23T07:12:43;0.63;;;0.50;;
47764;SDS011;33529;49.242;8.670;2024-03-23T07:15:09;1.10;;;0.60;;
47764;SDS011;33529;49.242;8.670;2024-03-23T07:17:35;1.67;;;0.60;;
47764;SDS011;33529;49.242;8.670;2024-03-23T07:20:02;0.70;;;0.40;;
47764;SDS011;33529;49.242;8.670;2024-03-23T07:22:29;0.28;;;0.20;;
47764;SDS011;33529;49.242;8.670;2024-03-23T07:24:57;0.63;;;0.35;;
47764;SDS011;33529;49.242;8.670;2024-03-23T07:27:24;0.35;;;0.35;;
47764;SDS011;33529;49.242;8.670;2024-03-23T07:29:51;0.85;;;0.52;;
47764;SDS011;33529;49.242;8.670;2024-03-23T07:32:17;0.40;;;0.32;;
47764;SDS011;33529;49.242;8.670;2024-03-23T07:34:43;0.57;;;0.30;;
47764;SDS011;33529;49.242;8.670;2024-03-23T07:37:10;0.80;;;0.40;;
47764;SDS011;33529;49.242;8.670;2024-03-23T07:39:36;1.80;;;0.50;;
47764;SDS011;33529;49.242;8.670;2024-03-23T07:42:02;0.80;;;0.52;;
47764;SDS011;33529;49.242;8.670;2024-03-23T07:44:28;0.80;;;0.38;;
47764;SDS011;33529;49.242;8.670;2024-03-23T07:46:54;1.67;;;0.68;;
47764;SDS011;33529;49.242;8.670;2024-03-23T07:49:19;2.40;;;1.10;;
47764;SDS011;33529;49.242;8.670;2024-03-23T07:51:45;2.88;;;1.17;;
47764;SDS011;33529;49.242;8.670;2024-03-23T07:54:11;3.38;;;1.13;;
47764;SDS011;33529;49.242;8.670;2024-03-23T07:56:37;2.55;;;1.42;;
47764;SDS011;33529;49.242;8.670;2024-03-23T07:59:03;2.80;;;1.02;;
47764;SDS011;33529;49.242;8.670;2024-03-23T08:01:29;2.53;;;1.00;;
47764;SDS011;33529;49.242;8.670;2024-03-23T08:03:55;2.38;;;0.82;;
47764;SDS011;33529;49.242;8.670;2024-03-23T08:06:21;1.73;;;0.80;;
47764;SDS011;33529;49.242;8.670;2024-03-23T08:08:54;2.63;;;1.00;;
47764;SDS011;33529;49.242;8.670;2024-03-23T08:11:30;2.08;;;0.95;;
47764;SDS011;33529;49.242;8.670;2024-03-23T08:13:57;1.83;;;1.00;;
47764;SDS011;33529;49.242;8.670;2024-03-23T08:16:23;2.67;;;1.00;;
47764;SDS011;33529;49.242;8.670;2024-03-23T08:18:53;1.92;;;1.10;;
47764;SDS011;33529;49.242;8.670;2024-03-23T08:23:47;3.67;;;1.45;;
47764;SDS011;33529;49.242;8.670;2024-03-23T08:26:14;2.17;;;1.10;;
47764;SDS011;33529;49.242;8.670;2024-03-23T08:28:41;2.53;;;1.30;;
47764;SDS011;33529;49.242;8.670;2024-03-23T08:31:08;3.95;;;1.50;;
47764;SDS011;33529;49.242;8.670;2024-03-23T08:33:34;3.33;;;1.15;;
47764;SDS011;33529;49.242;8.670;2024-03-23T08:36:01;3.00;;;1.40;;
47764;SDS011;33529;49.242;8.670;2024-03-23T08:38:28;4.00;;;1.38;;
47764;SDS011;33529;49.242;8.670;2024-03-23T08:40:58;3.97;;;1.90;;
47764;SDS011;33529;49.242;8.670;2024-03-23T08:43:25;4.40;;;2.25;;
47764;SDS011;33529;49.242;8.670;2024-03-23T08:45:51;4.97;;;2.20;;
47764;SDS011;33529;49.242;8.670;2024-03-23T08:48:17;4.30;;;2.38;;
47764;SDS011;33529;49.242;8.670;2024-03-23T08:50:46;7.05;;;2.30;;
47764;SDS011;33529;49.242;8.670;2024-03-23T08:53:12;7.10;;;2.00;;
47764;SDS011;33529;49.242;8.670;2024-03-23T08:55:38;7.20;;;2.33;;
47764;SDS011;33529;49.242;8.670;2024-03-23T08:58:04;5.07;;;2.75;;
47764;SDS011;33529;49.242;8.670;2024-03-23T09:00:33;6.07;;;2.53;;
47764;SDS011;33529;49.242;8.670;2024-03-23T09:03:00;6.07;;;2.28;;
47764;SDS011;33529;49.242;8.670;2024-03-23T09:05:27;5.43;;;2.47;;
47764;SDS011;33529;49.242;8.670;2024-03-23T09:07:54;6.85;;;2.47;;
47764;SDS011;33529;49.242;8.670;2024-03-23T09:10:19;7.63;;;2.80;;
47764;SDS011;33529;49.242;8.670;2024-03-23T09:12:46;5.78;;;2.47;;
47764;SDS011;33529;49.242;8.670;2024-03-23T09:15:12;3.95;;;2.28;;
47764;SDS011;33529;49.242;8.670;2024-03-23T09:17:38;5.78;;;2.58;;
47764;SDS011;33529;49.242;8.670;2024-03-23T09:20:04;6.28;;;2.45;;
47764;SDS011;33529;49.242;8.670;2024-03-23T09:22:31;5.18;;;2.33;;
47764;SDS011;33529;49.242;8.670;2024-03-23T09:24:56;6.80;;;2.47;;
47764;SDS011;33529;49.242;8.670;2024-03-23T09:27:22;5.35;;;2.42;;
47764;SDS011;33529;49.242;8.670;2024-03-23T09:29:48;3.63;;;1.77;;
47764;SDS011;33529;49.242;8.670;2024-03-23T09:32:15;5.47;;;2.20;;
47764;SDS011;33529;49.242;8.670;2024-03-23T09:34:42;7.28;;;2.67;;
47764;SDS011;33529;49.242;8.670;2024-03-23T09:37:08;4.25;;;1.85;;
47764;SDS011;33529;49.242;8.670;2024-03-23T09:39:34;7.82;;;2.70;;
47764;SDS011;33529;49.242;8.670;2024-03-23T09:41:59;3.75;;;1.98;;
47764;SDS011;33529;49.242;8.670;2024-03-23T09:44:26;5.57;;;2.25;;
47764;SDS011;33529;49.242;8.670;2024-03-23T09:46:54;5.60;;;2.42;;
47764;SDS011;33529;49.242;8.670;2024-03-23T09:49:21;7.50;;;2.80;;
47764;SDS011;33529;49.242;8.670;2024-03-23T09:51:46;7.30;;;2.67;;
47764;SDS011;33529;49.242;8.670;2024-03-23T09:54:12;6.90;;;2.92;;
47764;SDS011;33529;49.242;8.670;2024-03-23T09:56:38;7.72;;;3.40;;
47764;SDS011;33529;49.242;8.670;2024-03-23T09:59:05;10.85;;;3.30;;
47764;SDS011;33529;49.242;8.670;2024-03-23T10:01:31;9.50;;;2.90;;
47764;SDS011;33529;49.242;8.670;2024-03-23T10:03:58;5.78;;;3.00;;
47764;SDS011;33529;49.242;8.670;2024-03-23T10:06:23;6.10;;;3.15;;
47764;SDS011;33529;49.242;8.670;2024-03-23T10:08:52;5.88;;;3.05;;
47764;SDS011;33529;49.242;8.670;2024-03-23T10:11:20;6.07;;;3.10;;
47764;SDS011;33529;49.242;8.670;2024-03-23T10:13:46;5.38;;;3.22;;
47764;SDS011;33529;49.242;8.670;2024-03-23T10:16:20;7.55;;;3.00;;
47764;SDS011;33529;49.242;8.670;2024-03-23T10:18:48;6.97;;;2.90;;
47764;SDS011;33529;49.242;8.670;2024-03-23T10:21:14;6.57;;;3.15;;
47764;SDS011;33529;49.242;8.670;2024-03-23T10:23:41;7.22;;;3.17;;
47764;SDS011;33529;49.242;8.670;2024-03-23T10:26:18;5.80;;;2.97;;
47764;SDS011;33529;49.242;8.670;2024-03-23T10:28:54;6.28;;;3.13;;
47764;SDS011;33529;49.242;8.670;2024-03-23T10:31:29;8.27;;;3.55;;
47764;SDS011;33529;49.242;8.670;2024-03-23T10:33:56;5.90;;;3.13;;
47764;SDS011;33529;49.242;8.670;2024-03-23T10:36:22;8.85;;;3.25;;
47764;SDS011;33529;49.242;8.670;2024-03-23T10:38:50;7.70;;;3.40;;
47764;SDS011;33529;49.242;8.670;2024-03-23T10:41:17;8.95;;;3.30;;
47764;SDS011;33529;49.242;8.670;2024-03-23T10:43:48;5.30;;;2.92;;
47764;SDS011;33529;49.242;8.670;2024-03-23T10:46:14;4.93;;;3.08;;
47764;SDS011;33529;49.242;8.670;2024-03-23T10:48:41;5.32;;;2.80;;
47764;SDS011;33529;49.242;8.670;2024-03-23T10:51:07;6.75;;;3.08;;
47764;SDS011;33529;49.242;8.670;2024-03-23T10:53:34;6.30;;;2.65;;
47764;SDS011;33529;49.242;8.670;2024-03-23T10:56:02;6.82;;;2.95;;
47764;SDS011;33529;49.242;8.670;2024-03-23T10:58:42;8.52;;;3.33;;
47764;SDS011;33529;49.242;8.670;2024-03-23T11:01:13;7.03;;;2.75;;
47764;SDS011;33529;49.242;8.670;2024-03-23T11:03:40;8.98;;;3.38;;
47764;SDS011;33529;49.242;8.670;2024-03-23T11:06:10;11.30;;;4.25;;
47764;SDS011;33529;49.242;8.670;2024-03-23T11:08:56;7.93;;;2.92;;
47764;SDS011;33529;49.242;8.670;2024-03-23T11:11:22;5.63;;;3.20;;
47764;SDS011;33529;49.242;8.670;2024-03-23T11:13:51;6.22;;;3.33;;
47764;SDS011;33529;49.242;8.670;2024-03-23T11:16:24;8.80;;;3.22;;
47764;SDS011;33529;49.242;8.670;2024-03-23T11:22:04;6.78;;;2.90;;
47764;SDS011;33529;49.242;8.670;2024-03-23T11:24:30;6.70;;;3.08;;
47764;SDS011;33529;49.242;8.670;2024-03-23T11:26:57;10.40;;;3.30;;
47764;SDS011;33529;49.242;8.670;2024-03-23T11:29:29;6.05;;;3.40;;
47764;SDS011;33529;49.242;8.670;2024-03-23T11:31:55;5.63;;;3.15;;
47764;SDS011;33529;49.242;8.670;2024-03-23T11:34:22;6.82;;;3.22;;
47764;SDS011;33529;49.242;8.670;2024-03-23T11:36:48;6.32;;;3.08;;
47764;SDS011;33529;49.242;8.670;2024-03-23T11:39:19;6.50;;;3.05;;
47764;SDS011;33529;49.242;8.670;2024-03-23T11:44:21;6.30;;;3.30;;
47764;SDS011;33529;49.242;8.670;2024-03-23T11:46:49;9.85;;;3.13;;
47764;SDS011;33529;49.242;8.670;2024-03-23T11:49:24;6.65;;;3.05;;
47764;SDS011;33529;49.242;8.670;2024-03-23T11:51:51;5.95;;;2.88;;
47764;SDS011;33529;49.242;8.670;2024-03-23T11:54:22;5.88;;;2.38;;
47764;SDS011;33529;49.242;8.670;2024-03-23T11:56:58;6.50;;;2.63;;
47764;SDS011;33529;49.242;8.670;2024-03-23T11:59:37;6.50;;;2.42;;
47764;SDS011;33529;49.242;8.670;2024-03-23T12:02:08;4.70;;;2.45;;
47764;SDS011;33529;49.242;8.670;2024-03-23T12:04:41;5.57;;;2.45;;
47764;SDS011;33529;49.242;8.670;2024-03-23T12:07:14;3.90;;;1.83;;
47764;SDS011;33529;49.242;8.670;2024-03-23T12:09:48;4.07;;;1.92;;
47764;SDS011;33529;49.242;8.670;2024-03-23T12:12:34;5.28;;;2.10;;
47764;SDS011;33529;49.242;8.670;2024-03-23T12:15:04;4.10;;;1.35;;
47764;SDS011;33529;49.242;8.670;2024-03-23T12:17:31;3.75;;;1.80;;
47764;SDS011;33529;49.242;8.670;2024-03-23T12:19:58;10.32;;;2.30;;
47764;SDS011;33529;49.242;8.670;2024-03-23T12:22:24;6.70;;;1.95;;
47764;SDS011;33529;49.242;8.670;2024-03-23T12:24:50;4.35;;;1.65;;
47764;SDS011;33529;49.242;8.670;2024-03-23T12:27:16;4.07;;;1.90;;
47764;SDS011;33529;49.242;8.670;2024-03-23T12:29:42;3.67;;;1.60;;
47764;SDS011;33529;49.242;8.670;2024-03-23T12:32:11;4.35;;;1.67;;
47764;SDS011;33529;49.242;8.670;2024-03-23T12:34:38;7.40;;;2.42;;
47764;SDS011;33529;49.242;8.670;2024-03-23T12:37:04;5.10;;;2.05;;
47764;SDS011;33529;49.242;8.670;2024-03-23T12:39:31;5.93;;;2.03;;
47764;SDS011;33529;49.242;8.670;2024-03-23T12:41:57;5.57;;;2.20;;
47764;SDS011;33529;49.242;8.670;2024-03-23T12:44:23;5.70;;;2.30;;
47764;SDS011;33529;49.242;8.670;2024-03-23T12:46:49;4.68;;;2.17;;
47764;SDS011;33529;49.242;8.670;2024-03-23T12:49:15;6.78;;;3.05;;
47764;SDS011;33529;49.242;8.670;2024-03-23T12:51:47;3.50;;;2.15;;
47764;SDS011;33529;49.242;8.670;2024-03-23T12:54:24;6.00;;;2.22;;
47764;SDS011;33529;49.242;8.670;2024-03-23T12:56:50;5.43;;;2.22;;
47764;SDS011;33529;49.242;8.670;2024-03-23T12:59:16;6.97;;;2.13;;
47764;SDS011;33529;49.242;8.670;2024-03-23T13:01:43;4.00;;;1.75;;
47764;SDS011;33529;49.242;8.670;2024-03-23T13:04:10;4.32;;;1.67;;
47764;SDS011;33529;49.242;8.670;2024-03-23T13:06:36;4.43;;;2.17;;
47764;SDS011;33529;49.242;8.670;2024-03-23T13:09:03;4.55;;;1.77;;
47764;SDS011;33529;49.242;8.670;2024-03-23T13:11:29;8.52;;;2.30;;
47764;SDS011;33529;49.242;8.670;2024-03-23T13:13:56;8.88;;;2.45;;
47764;SDS011;33529;49.242;8.670;2024-03-23T13:16:22;6.13;;;1.58;;
47764;SDS011;33529;49.242;8.670;2024-03-23T13:18:48;4.78;;;1.83;;
47764;SDS011;33529;49.242;8.670;2024-03-23T13:21:16;5.97;;;1.63;;
47764;SDS011;33529;49.242;8.670;2024-03-23T13:23:42;4.80;;;1.75;;
47764;SDS011;33529;49.242;8.670;2024-03-23T13:26:13;3.92;;;1.30;;
47764;SDS011;33529;49.242;8.670;2024-03-23T13:28:39;4.22;;;1.60;;
47764;SDS011;33529;49.242;8.670;2024-03-23T13:31:05;4.18;;;1.33;;
47764;SDS011;33529;49.242;8.670;2024-03-23T13:33:30;4.30;;;1.23;;
47764;SDS011;33529;49.242;8.670;2024-03-23T13:35:59;4.57;;;1.08;;
47764;SDS011;33529;49.242;8.670;2024-03-23T13:38:25;5.75;;;1.67;;
47764;SDS011;33529;49.242;8.670;2024-03-23T13:40:55;2.83;;;1.40;;
47764;SDS011;33529;49.242;8.670;2024-03-23T13:43:22;2.42;;;1.20;;
47764;SDS011;33529;49.242;8.670;2024-03-23T13:45:58;6.57;;;1.15;;
47764;SDS011;33529;49.242;8.670;2024-03-23T13:48:25;3.00;;;1.30;;
47764;SDS011;33529;49.242;8.670;2024-03-23T13:53:28;4.60;;;1.73;;
47764;SDS011;33529;49.242;8.670;2024-03-23T13:55:54;4.25;;;1.38;;
47764;SDS011;33529;49.242;8.670;2024-03-23T13:58:20;3.83;;;1.02;;
47764;SDS011;33529;49.242;8.670;2024-03-23T14:00:46;2.85;;;1.00;;
47764;SDS011;33529;49.242;8.670;2024-03-23T14:03:13;3.35;;;1.13;;
47764;SDS011;33529;49.242;8.670;2024-03-23T14:05:41;3.50;;;1.08;;
47764;SDS011;33529;49.242;8.670;2024-03-23T14:08:07;2.42;;;0.95;;
47764;SDS011;33529;49.242;8.670;2024-03-23T14:10:34;5.75;;;1.27;;
47764;SDS011;33529;49.242;8.670;2024-03-23T14:13:01;3.67;;;1.35;;
47764;SDS011;33529;49.242;8.670;2024-03-23T14:15:28;1.83;;;1.00;;
47764;SDS011;33529;49.242;8.670;2024-03-23T14:17:55;2.97;;;1.15;;
47764;SDS011;33529;49.242;8.670;2024-03-23T14:20:22;5.65;;;1.42;;
47764;SDS011;33529;49.242;8.670;2024-03-23T14:22:48;7.68;;;1.00;;
47764;SDS011;33529;49.242;8.670;2024-03-23T14:25:15;1.67;;;0.90;;
47764;SDS011;33529;49.242;8.670;2024-03-23T14:27:41;2.47;;;1.13;;
47764;SDS011;33529;49.242;8.670;2024-03-23T14:30:09;3.38;;;1.23;;
47764;SDS011;33529;49.242;8.670;2024-03-23T14:32:35;2.30;;;0.98;;
47764;SDS011;33529;49.242;8.670;2024-03-23T14:35:03;2.85;;;1.00;;
47764;SDS011;33529;49.242;8.670;2024-03-23T14:37:29;4.55;;;1.50;;
47764;SDS011;33529;49.242;8.670;2024-03-23T14:39:58;4.38;;;1.23;;
47764;SDS011;33529;49.242;8.670;2024-03-23T14:42:25;2.60;;;1.27;;
47764;SDS011;33529;49.242;8.670;2024-03-23T14:44:51;1.88;;;1.00;;
47764;SDS011;33529;49.242;8.670;2024-03-23T14:47:18;5.47;;;1.20;;
47764;SDS011;33529;49.242;8.670;2024-03-23T14:49:45;2.67;;;1.13;;
47764;SDS011;33529;49.242;8.670;2024-03-23T14:52:18;6.95;;;1.20;;
47764;SDS011;33529;49.242;8.670;2024-03-23T14:54:45;3.28;;;1.10;;
47764;SDS011;33529;49.242;8.670;2024-03-23T14:57:11;3.15;;;1.30;;
47764;SDS011;33529;49.242;8.670;2024-03-23T14:59:37;2.83;;;1.35;;
47764;SDS011;33529;49.242;8.670;2024-03-23T15:02:04;4.78;;;1.35;;
47764;SDS011;33529;49.242;8.670;2024-03-23T15:04:30;5.38;;;1.35;;
47764;SDS011;33529;49.242;8.670;2024-03-23T15:06:56;5.38;;;1.60;;
47764;SDS011;33529;49.242;8.670;2024-03-23T15:09:22;4.25;;;1.55;;
47764;SDS011;33529;49.242;8.670;2024-03-23T15:11:48;3.80;;;1.27;;
47764;SDS011;33529;49.242;8.670;2024-03-23T15:14:13;4.13;;;1.00;;
47764;SDS011;33529;49.242;8.670;2024-03-23T15:16:39;1.73;;;0.88;;
47764;SDS011;33529;49.242;8.670;2024-03-23T15:19:07;2.50;;;1.30;;
47764;SDS011;33529;49.242;8.670;2024-03-23T15:21:33;2.63;;;1.30;;
47764;SDS011;33529;49.242;8.670;2024-03-23T15:24:00;4.03;;;1.08;;
47764;SDS011;33529;49.242;8.670;2024-03-23T15:26:26;6.07;;;1.48;;
47764;SDS011;33529;49.242;8.670;2024-03-23T15:28:52;3.63;;;1.33;;
47764;SDS011;33529;49.242;8.670;2024-03-23T15:31:20;3.28;;;1.27;;
47764;SDS011;33529;49.242;8.670;2024-03-23T15:33:46;4.28;;;1.50;;
47764;SDS011;33529;49.242;8.670;2024-03-23T15:36:14;3.78;;;1.30;;
47764;SDS011;33529;49.242;8.670;2024-03-23T15:38:41;3.13;;;1.02;;
47764;SDS011;33529;49.242;8.670;2024-03-23T15:41:08;3.35;;;1.00;;
47764;SDS011;33529;49.242;8.670;2024-03-23T15:43:35;2.92;;;1.00;;
47764;SDS011;33529;49.242;8.670;2024-03-23T15:46:03;4.85;;;1.08;;
47764;SDS011;33529;49.242;8.670;2024-03-23T15:48:30;2.15;;;1.33;;